TimeCDT,TemperatureF,Dew PointF,Humidity,Sea Level PressureIn,VisibilityMPH,Wind Direction,Wind SpeedMPH,Gust SpeedMPH,PrecipitationIn,Events,Conditions,WindDirDegrees,DateUTC
12:15 AM,71.6,62.6,73,29.94,10.0,SE,10.4,-,N/A,,Clear,140,2013-07-12 05:15:00
12:35 AM,73.4,62.6,69,29.94,10.0,SE,10.4,-,N/A,,Clear,140,2013-07-12 05:35:00
12:55 AM,71.6,62.6,73,29.94,10.0,SE,10.4,-,N/A,,Clear,140,2013-07-12 05:55:00
1:15 AM,71.6,62.6,73,29.94,10.0,SE,11.5,-,N/A,,Clear,140,2013-07-12 06:15:00
1:35 AM,71.6,62.6,73,29.94,10.0,SSE,13.8,-,N/A,,Clear,150,2013-07-12 06:35:00
1:55 AM,71.6,62.6,73,29.93,10.0,SE,11.5,-,N/A,,Clear,140,2013-07-12 06:55:00
2:15 AM,71.6,62.6,73,29.93,10.0,SE,12.7,-,N/A,,Clear,140,2013-07-12 07:15:00
2:35 AM,71.6,60.8,69,29.93,10.0,SE,11.5,-,N/A,,Clear,140,2013-07-12 07:35:00
2:55 AM,69.8,60.8,73,29.93,10.0,SE,10.4,-,N/A,,Clear,140,2013-07-12 07:55:00
3:15 AM,69.8,60.8,73,29.92,10.0,SE,11.5,-,N/A,,Clear,140,2013-07-12 08:15:00
3:35 AM,69.8,60.8,73,29.92,10.0,SE,11.5,-,N/A,,Clear,140,2013-07-12 08:35:00
3:55 AM,69.8,60.8,73,29.92,10.0,ESE,8.1,-,N/A,,Clear,120,2013-07-12 08:55:00
4:15 AM,69.8,60.8,73,29.92,10.0,SE,5.8,-,N/A,,Clear,130,2013-07-12 09:15:00
4:35 AM,68.0,60.8,78,29.92,10.0,SE,8.1,-,N/A,,Clear,130,2013-07-12 09:35:00
4:55 AM,68.0,60.8,78,29.92,10.0,SE,8.1,-,N/A,,Clear,130,2013-07-12 09:55:00
5:15 AM,69.8,60.8,73,29.91,10.0,ESE,8.1,-,N/A,,Clear,120,2013-07-12 10:15:00
5:35 AM,69.8,60.8,73,29.91,10.0,SE,11.5,-,N/A,,Clear,130,2013-07-12 10:35:00
5:55 AM,69.8,60.8,73,29.91,10.0,SE,10.4,-,N/A,,Clear,140,2013-07-12 10:55:00
6:15 AM,69.8,60.8,73,29.91,10.0,SE,9.2,-,N/A,,Clear,140,2013-07-12 11:15:00
6:35 AM,69.8,60.8,73,29.91,10.0,SE,10.4,-,N/A,,Clear,140,2013-07-12 11:35:00
6:55 AM,69.8,60.8,73,29.91,10.0,SE,9.2,-,N/A,,Clear,140,2013-07-12 11:55:00
7:15 AM,69.8,60.8,73,29.91,9.0,SE,10.4,-,N/A,,Clear,140,2013-07-12 12:15:00
7:35 AM,71.6,60.8,69,29.91,10.0,SSE,12.7,-,N/A,,Clear,150,2013-07-12 12:35:00
7:55 AM,73.4,60.8,65,29.91,10.0,SSE,15.0,19.6,N/A,,Clear,150,2013-07-12 12:55:00
8:15 AM,73.4,60.8,65,29.90,10.0,SSE,15.0,-,N/A,,Clear,150,2013-07-12 13:15:00
8:35 AM,75.2,62.6,65,29.90,10.0,SSE,12.7,-,N/A,,Clear,150,2013-07-12 13:35:00
8:55 AM,77.0,64.4,65,29.90,10.0,SSE,15.0,-,N/A,,Clear,160,2013-07-12 13:55:00
9:15 AM,78.8,62.6,57,29.90,10.0,South,15.0,21.9,N/A,,Clear,170,2013-07-12 14:15:00
9:35 AM,80.6,62.6,54,29.89,10.0,SSE,19.6,24.2,N/A,,Clear,160,2013-07-12 14:35:00
9:55 AM,80.6,64.4,58,29.89,10.0,SSE,18.4,24.2,N/A,,Clear,160,2013-07-12 14:55:00
10:15 AM,82.4,64.4,54,29.88,10.0,SSE,16.1,-,N/A,,Clear,160,2013-07-12 15:15:00
10:35 AM,82.4,66.2,58,29.88,10.0,SSE,16.1,23.0,N/A,,Clear,160,2013-07-12 15:35:00
10:55 AM,84.2,66.2,55,29.88,10.0,SSE,18.4,23.0,N/A,,Clear,160,2013-07-12 15:55:00
11:15 AM,84.2,66.2,55,29.87,10.0,SSE,19.6,-,N/A,,Clear,150,2013-07-12 16:15:00
11:35 AM,84.2,68.0,58,29.87,10.0,SE,16.1,-,N/A,,Clear,140,2013-07-12 16:35:00
11:55 AM,86.0,68.0,55,29.87,10.0,SSE,16.1,25.3,N/A,,Clear,150,2013-07-12 16:55:00
12:15 PM,86.0,69.8,58,29.86,10.0,SSE,17.3,21.9,N/A,,Clear,150,2013-07-12 17:15:00
12:35 PM,87.8,69.8,55,29.86,10.0,SSE,15.0,24.2,N/A,,Clear,150,2013-07-12 17:35:00
12:55 PM,87.8,69.8,55,29.85,10.0,SSE,18.4,24.2,N/A,,Clear,150,2013-07-12 17:55:00
1:15 PM,87.8,71.6,58,29.85,10.0,SSE,13.8,25.3,N/A,,Clear,150,2013-07-12 18:15:00
1:35 PM,89.6,71.6,55,29.85,10.0,SSE,13.8,24.2,N/A,,Clear,160,2013-07-12 18:35:00
1:55 PM,89.6,71.6,55,29.85,10.0,SE,12.7,25.3,N/A,,Clear,140,2013-07-12 18:55:00
2:15 PM,89.6,71.6,55,29.85,10.0,SSE,18.4,27.6,N/A,,Clear,150,2013-07-12 19:15:00
2:35 PM,91.4,71.6,52,29.84,10.0,SE,17.3,23.0,N/A,,Clear,140,2013-07-12 19:35:00
2:55 PM,91.4,71.6,52,29.84,10.0,SE,20.7,24.2,N/A,,Clear,140,2013-07-12 19:55:00
3:15 PM,91.4,71.6,52,29.84,10.0,SE,18.4,28.8,N/A,,Clear,140,2013-07-12 20:15:00
3:35 PM,91.4,73.4,55,29.84,10.0,SSE,17.3,21.9,N/A,,Clear,160,2013-07-12 20:35:00
3:55 PM,91.4,71.6,52,29.84,10.0,SSE,19.6,28.8,N/A,,Clear,150,2013-07-12 20:55:00
4:15 PM,91.4,73.4,55,29.83,10.0,SSE,18.4,23.0,N/A,,Clear,150,2013-07-12 21:15:00
4:35 PM,91.4,73.4,55,29.83,10.0,SSE,18.4,25.3,N/A,,Clear,160,2013-07-12 21:35:00
4:55 PM,91.4,73.4,55,29.82,10.0,SSE,18.4,28.8,N/A,,Clear,160,2013-07-12 21:55:00
5:15 PM,91.4,73.4,55,29.82,10.0,SSE,19.6,26.5,N/A,,Clear,160,2013-07-12 22:15:00
5:35 PM,91.4,73.4,55,29.82,10.0,SSE,18.4,25.3,N/A,,Clear,160,2013-07-12 22:35:00
5:55 PM,91.4,73.4,55,29.81,10.0,SSE,16.1,26.5,N/A,,Clear,150,2013-07-12 22:55:00
6:15 PM,91.4,71.6,52,29.81,10.0,SSE,15.0,27.6,N/A,,Clear,160,2013-07-12 23:15:00
6:35 PM,91.4,73.4,55,29.82,10.0,SSE,18.4,24.2,N/A,,Clear,160,2013-07-12 23:35:00
6:55 PM,91.4,71.6,52,29.81,10.0,SSE,18.4,25.3,N/A,,Clear,160,2013-07-12 23:55:00
7:15 PM,89.6,73.4,59,29.81,10.0,SSE,19.6,25.3,N/A,,Clear,160,2013-07-13 00:15:00
7:35 PM,89.6,73.4,59,29.81,10.0,SSE,16.1,20.7,N/A,,Clear,150,2013-07-13 00:35:00
7:55 PM,87.8,73.4,62,29.82,8.0,SSE,16.1,-,N/A,,Clear,150,2013-07-13 00:55:00
8:15 PM,87.8,71.6,58,29.82,10.0,SSE,18.4,21.9,N/A,,Clear,160,2013-07-13 01:15:00
8:35 PM,86.0,73.4,66,29.83,10.0,SSE,13.8,-,N/A,,Clear,150,2013-07-13 01:35:00
8:55 PM,84.2,71.6,66,29.83,10.0,SSE,16.1,21.9,N/A,,Clear,150,2013-07-13 01:55:00
9:15 PM,84.2,71.6,66,29.83,10.0,SE,15.0,-,N/A,,Clear,140,2013-07-13 02:15:00
9:35 PM,84.2,71.6,66,29.83,10.0,SE,15.0,20.7,N/A,,Clear,140,2013-07-13 02:35:00
9:55 PM,84.2,71.6,66,29.84,10.0,SE,15.0,20.7,N/A,,Clear,140,2013-07-13 02:55:00
10:15 PM,82.4,71.6,70,29.85,10.0,SSE,12.7,21.9,N/A,,Clear,150,2013-07-13 03:15:00
10:35 PM,82.4,71.6,70,29.86,10.0,SSE,13.8,20.7,N/A,,Clear,150,2013-07-13 03:35:00
10:55 PM,82.4,71.6,70,29.85,10.0,SSE,15.0,-,N/A,,Clear,150,2013-07-13 03:55:00
11:15 PM,82.4,69.8,66,29.85,10.0,SSE,15.0,21.9,N/A,,Clear,160,2013-07-13 04:15:00
11:35 PM,82.4,69.8,66,29.85,10.0,SSE,16.1,25.3,N/A,,Clear,160,2013-07-13 04:35:00
11:55 PM,80.6,69.8,70,29.86,10.0,SSE,16.1,-,N/A,,Clear,160,2013-07-13 04:55:00